Time;durP1;ratioP1;P1;durP2;ratioP2;P2;SDS_P1;SDS_P2;PMS_P1;PMS_P2;Temp;Humidity;BMP_temperature;BMP_pressure;BME280_temperature;BME280_humidity;BME280_pressure;Samples;Min_cycle;Max_cycle;Signal;HPM_P1;HPM_P2
2023/07/30 00:06:00;;;;;;;;;;;16.90;99.90;;;;;;20862000;28;20287;-78
2023/07/30 00:16:01;;;;;;;;;;;16.80;99.90;;;;;;20862052;28;20003;-78
2023/07/30 00:26:02;;;;;;;;;;;16.80;99.90;;;;;;20858872;28;19967;-79
2023/07/30 00:36:02;;;;;;;;;;;16.80;99.90;;;;;;20858005;28;19925;-79
2023/07/30 00:46:03;;;;;;;;;;;16.90;99.90;;;;;;20856933;28;19913;-79
2023/07/30 00:56:05;;;;;;;;;;;17.00;99.90;;;;;;20855141;28;19917;-78
2023/07/30 01:06:06;;;;;;;;;;;17.00;99.90;;;;;;20854655;28;20306;-79
2023/07/30 01:16:07;;;;;;;;;;;16.90;99.90;;;;;;20854694;28;19960;-78
2023/07/30 01:26:12;;;;;;;;;;;16.90;99.90;;;;;;20838530;28;20360;-79
2023/07/30 01:36:15;;;;;;;;;;;16.80;99.90;;;;;;20869361;28;20376;-79
2023/07/30 01:46:15;;;;;;;;;;;16.80;99.90;;;;;;20852235;28;19924;-79
2023/07/30 01:56:16;;;;;;;;;;;16.80;99.90;;;;;;20852573;28;19917;-79
2023/07/30 02:06:17;;;;;;;;;;;16.60;99.90;;;;;;20866783;28;19917;-77
2023/07/30 02:16:17;;;;;;;;;;;16.40;99.90;;;;;;20849569;28;20012;-78
2023/07/30 02:26:18;;;;;;;;;;;16.30;99.90;;;;;;20848814;28;19924;-78
2023/07/30 02:36:19;;;;;;;;;;;16.30;99.90;;;;;;20815614;28;19928;-79
2023/07/30 02:46:19;;;;;;;;;;;16.50;99.90;;;;;;20794391;28;19918;-79
2023/07/30 02:56:20;;;;;;;;;;;16.50;99.90;;;;;;20824871;28;19917;-79
2023/07/30 03:06:21;;;;;;;;;;;16.60;99.90;;;;;;20843865;28;19913;-78
2023/07/30 03:16:21;;;;;;;;;;;16.60;99.90;;;;;;20857044;28;19924;-76
2023/07/30 03:26:22;;;;;;;;;;;16.70;99.90;;;;;;20859868;28;19939;-78
2023/07/30 03:36:23;;;;;;;;;;;16.70;99.90;;;;;;20856773;28;20387;-78
2023/07/30 03:46:23;;;;;;;;;;;16.60;99.90;;;;;;20857285;28;19917;-78
2023/07/30 03:56:25;;;;;;;;;;;16.70;99.90;;;;;;20853086;28;19917;-78
2023/07/30 04:06:25;;;;;;;;;;;16.50;99.90;;;;;;20853877;28;19940;-76
2023/07/30 04:16:26;;;;;;;;;;;16.50;99.90;;;;;;20854037;28;19921;-78
2023/07/30 04:26:27;;;;;;;;;;;16.40;99.90;;;;;;20844046;28;19917;-75
2023/07/30 04:36:27;;;;;;;;;;;16.60;99.90;;;;;;20832560;28;20455;-76
2023/07/30 04:46:29;;;;;;;;;;;16.70;99.90;;;;;;20831947;28;19914;-75
2023/07/30 04:56:31;;;;;;;;;;;16.80;99.90;;;;;;20820566;28;20388;-76
2023/07/30 05:06:32;;;;;;;;;;;16.90;99.90;;;;;;20821862;28;20051;-76
2023/07/30 05:16:33;;;;;;;;;;;17.10;99.90;;;;;;20828187;28;20386;-76
2023/07/30 05:26:34;;;;;;;;;;;17.50;99.90;;;;;;20828682;28;20000;-77
2023/07/30 05:36:34;;;;;;;;;;;17.50;99.90;;;;;;20829065;28;19963;-78
2023/07/30 05:46:35;;;;;;;;;;;17.40;99.90;;;;;;20847438;28;19913;-78
2023/07/30 05:56:35;;;;;;;;;;;17.30;99.90;;;;;;20872378;28;19931;-79
2023/07/30 06:06:36;;;;;;;;;;;17.50;99.90;;;;;;20873485;28;19963;-79
2023/07/30 06:16:37;;;;;;;;;;;17.90;99.90;;;;;;20885770;28;19993;-80
2023/07/30 06:26:37;;;;;;;;;;;17.90;99.90;;;;;;20888138;28;19955;-80
2023/07/30 06:36:38;;;;;;;;;;;18.00;99.90;;;;;;20887479;28;19992;-79
2023/07/30 06:46:39;;;;;;;;;;;17.70;99.90;;;;;;20889588;28;19920;-80
2023/07/30 06:56:39;;;;;;;;;;;17.90;99.90;;;;;;20884522;28;19917;-79
2023/07/30 07:06:40;;;;;;;;;;;18.40;99.90;;;;;;20871361;28;19917;-78
2023/07/30 07:16:41;;;;;;;;;;;18.80;99.90;;;;;;20864498;28;20421;-78
2023/07/30 07:26:41;;;;;;;;;;;18.50;99.90;;;;;;20862744;28;19928;-78
2023/07/30 07:36:42;;;;;;;;;;;18.50;99.90;;;;;;20883298;28;19940;-78
2023/07/30 07:46:43;;;;;;;;;;;19.20;99.90;;;;;;20877931;28;19914;-78
2023/07/30 07:56:43;;;;;;;;;;;19.50;99.90;;;;;;20854508;28;20426;-78
2023/07/30 08:06:44;;;;;;;;;;;19.20;99.90;;;;;;20853137;28;19913;-79
2023/07/30 08:16:44;;;;;;;;;;;19.10;99.90;;;;;;20854300;28;19917;-78
2023/07/30 08:26:46;;;;;;;;;;;19.20;99.90;;;;;;20842014;28;19988;-78
2023/07/30 08:36:47;;;;;;;;;;;19.10;99.90;;;;;;20833802;28;19940;-77
2023/07/30 08:46:47;;;;;;;;;;;19.20;99.90;;;;;;20809824;28;19913;-81
2023/07/30 08:56:48;;;;;;;;;;;20.80;99.90;;;;;;20787797;28;19948;-77
2023/07/30 09:06:50;;;;;;;;;;;20.80;99.90;;;;;;20841893;28;19913;-78
2023/07/30 09:16:57;;;;;;;;;;;21.10;99.90;;;;;;20827039;28;19928;-78
2023/07/30 09:27:01;;;;;;;;;;;20.30;99.90;;;;;;20853477;28;19917;-79
2023/07/30 09:37:02;;;;;;;;;;;21.50;99.90;;;;;;20843653;28;19921;-79
2023/07/30 09:47:05;;;;;;;;;;;22.50;99.90;;;;;;20843560;28;19924;-79
2023/07/30 09:57:06;;;;;;;;;;;21.80;99.90;;;;;;20847916;28;20003;-79
2023/07/30 10:07:10;;;;;;;;;;;22.50;99.90;;;;;;20848083;28;19918;-78
2023/07/30 10:17:11;;;;;;;;;;;23.10;99.90;;;;;;20834254;28;20634;-78
2023/07/30 10:27:22;;;;;;;;;;;23.40;99.90;;;;;;20845733;28;19920;-79
2023/07/30 10:37:24;;;;;;;;;;;23.70;99.90;;;;;;20872459;28;19917;-79
2023/07/30 10:47:26;;;;;;;;;;;24.10;99.90;;;;;;20841548;28;19917;-78
2023/07/30 10:57:31;;;;;;;;;;;24.40;99.90;;;;;;20855881;28;20027;-79
2023/07/30 11:07:32;;;;;;;;;;;23.90;99.90;;;;;;20848997;28;19963;-79
2023/07/30 11:17:32;;;;;;;;;;;24.20;99.90;;;;;;20874585;28;19964;-79
2023/07/30 11:27:49;;;;;;;;;;;24.60;99.90;;;;;;20864482;28;19939;-79
2023/07/30 11:37:50;;;;;;;;;;;24.90;99.90;;;;;;20868804;28;19917;-79
2023/07/30 11:47:50;;;;;;;;;;;24.70;99.90;;;;;;20841982;28;20310;-79
2023/07/30 11:57:51;;;;;;;;;;;25.10;99.90;;;;;;20864861;28;19917;-79
2023/07/30 12:07:52;;;;;;;;;;;25.40;99.90;;;;;;20847495;28;19945;-79
2023/07/30 12:17:53;;;;;;;;;;;25.40;98.50;;;;;;20822701;28;20390;-77
2023/07/30 12:27:53;;;;;;;;;;;24.90;96.80;;;;;;20832999;28;19917;-78
2023/07/30 12:37:54;;;;;;;;;;;24.90;96.80;;;;;;20841762;28;19917;-78
2023/07/30 12:47:55;;;;;;;;;;;25.30;97.70;;;;;;20840455;28;19973;-80
2023/07/30 12:57:55;;;;;;;;;;;25.70;96.90;;;;;;20837371;28;19917;-79
2023/07/30 13:07:56;;;;;;;;;;;25.50;96.30;;;;;;20827413;28;19913;-79
2023/07/30 13:17:56;;;;;;;;;;;25.80;98.30;;;;;;20874711;28;19921;-79
2023/07/30 13:27:57;;;;;;;;;;;25.10;97.80;;;;;;20848103;28;19925;-76
2023/07/30 13:37:58;;;;;;;;;;;25.30;97.00;;;;;;20842937;28;19969;-79
2023/07/30 13:48:00;;;;;;;;;;;24.70;95.00;;;;;;20830539;28;20206;-79
2023/07/30 13:58:03;;;;;;;;;;;25.20;96.00;;;;;;20846089;28;19917;-79
2023/07/30 14:08:04;;;;;;;;;;;25.20;97.20;;;;;;20798097;28;19913;-78
2023/07/30 14:18:04;;;;;;;;;;;24.50;96.50;;;;;;20801657;28;20295;-78
2023/07/30 14:28:05;;;;;;;;;;;24.70;97.00;;;;;;20813612;28;19980;-79
2023/07/30 14:38:06;;;;;;;;;;;24.50;98.80;;;;;;20807093;28;20015;-79
2023/07/30 14:48:06;;;;;;;;;;;24.30;99.90;;;;;;20873120;28;19917;-78
2023/07/30 14:58:08;;;;;;;;;;;24.00;99.90;;;;;;20852492;28;19978;-79
2023/07/30 15:08:09;;;;;;;;;;;24.40;99.90;;;;;;20802023;28;19913;-79
2023/07/30 15:18:10;;;;;;;;;;;24.50;99.90;;;;;;20862601;28;19917;-77
2023/07/30 15:28:10;;;;;;;;;;;24.20;99.90;;;;;;20824067;28;19917;-78
2023/07/30 15:38:11;;;;;;;;;;;24.00;99.90;;;;;;20844340;28;20315;-78
2023/07/30 15:48:12;;;;;;;;;;;24.00;99.90;;;;;;20799499;28;19920;-77
2023/07/30 15:58:13;;;;;;;;;;;23.70;99.90;;;;;;20958475;22;19973;-77
2023/07/30 16:08:14;;;;;;;;;;;23.90;99.90;;;;;;21022215;28;20508;-76
2023/07/30 16:18:14;;;;;;;;;;;23.30;99.90;;;;;;21002643;28;19921;-76
2023/07/30 16:28:15;;;;;;;;;;;23.00;99.90;;;;;;20987766;28;19913;-76
2023/07/30 16:38:16;;;;;;;;;;;22.90;99.90;;;;;;21005055;28;20006;-77
2023/07/30 16:48:17;;;;;;;;;;;22.80;99.90;;;;;;20998506;28;19919;-76
2023/07/30 16:58:18;;;;;;;;;;;22.60;99.90;;;;;;21000937;28;20438;-76
2023/07/30 17:08:18;;;;;;;;;;;22.60;99.90;;;;;;20998247;28;19920;-77
2023/07/30 17:18:20;;;;;;;;;;;22.70;99.90;;;;;;20986060;28;19920;-77
2023/07/30 17:28:21;;;;;;;;;;;22.50;99.90;;;;;;21017396;28;19920;-78
2023/07/30 17:38:21;;;;;;;;;;;22.10;99.90;;;;;;21042284;28;19974;-78
2023/07/30 17:48:23;;;;;;;;;;;22.00;99.90;;;;;;21041035;28;19919;-77
2023/07/30 17:58:23;;;;;;;;;;;21.80;99.90;;;;;;21037953;28;19920;-77
2023/07/30 18:08:24;;;;;;;;;;;21.60;99.90;;;;;;21042988;28;19919;-78
2023/07/30 18:18:24;;;;;;;;;;;21.30;99.90;;;;;;21034734;28;19973;-78
2023/07/30 18:28:25;;;;;;;;;;;21.10;99.90;;;;;;21037135;28;19931;-78
2023/07/30 18:38:26;;;;;;;;;;;21.00;99.90;;;;;;21024257;28;19921;-78
2023/07/30 18:48:28;;;;;;;;;;;20.90;99.90;;;;;;21053961;28;19916;-78
2023/07/30 18:58:28;;;;;;;;;;;20.80;99.90;;;;;;21073059;28;19920;-79
2023/07/30 19:08:29;;;;;;;;;;;20.50;99.90;;;;;;21064512;28;19958;-78
2023/07/30 19:18:30;;;;;;;;;;;20.20;99.90;;;;;;21044136;28;19927;-78
2023/07/30 19:28:31;;;;;;;;;;;20.00;99.90;;;;;;21036812;28;19946;-78
2023/07/30 19:38:31;;;;;;;;;;;19.60;99.90;;;;;;21071158;28;20247;-78
2023/07/30 19:48:32;;;;;;;;;;;18.60;99.90;;;;;;21067852;28;19934;-77
2023/07/30 19:58:33;;;;;;;;;;;17.80;99.90;;;;;;21053952;28;19940;-78
2023/07/30 20:08:35;;;;;;;;;;;17.70;99.90;;;;;;21037956;28;19923;-77
2023/07/30 20:18:37;;;;;;;;;;;17.10;99.90;;;;;;21021848;28;19917;-79
2023/07/30 20:28:38;;;;;;;;;;;16.80;99.90;;;;;;21023584;28;19920;-78
2023/07/30 20:38:39;;;;;;;;;;;16.60;99.90;;;;;;21010676;28;19928;-78
2023/07/30 20:48:41;;;;;;;;;;;16.60;99.90;;;;;;21017955;28;19923;-78
2023/07/30 20:58:41;;;;;;;;;;;16.20;99.90;;;;;;21018287;28;19916;-77
2023/07/30 21:08:42;;;;;;;;;;;16.00;99.90;;;;;;21009049;28;19951;-78
2023/07/30 21:18:43;;;;;;;;;;;15.60;99.90;;;;;;21029606;28;20390;-78
2023/07/30 21:28:43;;;;;;;;;;;15.60;99.90;;;;;;21028360;28;19974;-78
2023/07/30 21:38:44;;;;;;;;;;;15.30;99.90;;;;;;21027167;28;19923;-79
2023/07/30 21:48:45;;;;;;;;;;;15.20;99.90;;;;;;21027626;28;20293;-79
2023/07/30 21:58:45;;;;;;;;;;;15.10;99.90;;;;;;20973306;22;19948;-79
2023/07/30 22:08:46;;;;;;;;;;;15.10;99.90;;;;;;20926916;28;19916;-78
2023/07/30 22:18:47;;;;;;;;;;;14.80;99.90;;;;;;20862160;28;19921;-78
2023/07/30 22:28:47;;;;;;;;;;;14.90;99.90;;;;;;20841965;28;19921;-79
2023/07/30 22:38:48;;;;;;;;;;;14.60;99.90;;;;;;20842445;28;20322;-78
2023/07/30 22:48:48;;;;;;;;;;;14.30;99.90;;;;;;20842128;28;19948;-79
2023/07/30 22:58:49;;;;;;;;;;;14.10;99.90;;;;;;20900492;28;20000;-78
2023/07/30 23:08:50;;;;;;;;;;;14.00;99.90;;;;;;20907035;28;19936;-77
2023/07/30 23:18:50;;;;;;;;;;;14.00;99.90;;;;;;20894292;28;19917;-79
2023/07/30 23:28:51;;;;;;;;;;;13.90;99.90;;;;;;20903040;28;20333;-79
2023/07/30 23:38:52;;;;;;;;;;;13.90;99.90;;;;;;20895251;28;19925;-79
2023/07/30 23:48:52;;;;;;;;;;;13.90;99.90;;;;;;20890157;28;19925;-78
2023/07/30 23:58:53;;;;;;;;;;;13.70;99.90;;;;;;20822852;28;20447;-78
